»·PEaware :: N102MR KAVX-KSAN

N102MR :: KAVX-KSAN

FLIGHT INFORMATION

Flight Status: Arrived
Operator: Privately registered:
United States
More flights under this callsign
Pilot: Michael R. (16974)
Aircraft: CESSNA 172 SKYHAWK
(C172)
More flights by this aircraft type
Origin: KAVX Catalina
United States
Destination: KSAN San Diego Intl-Lindbergh
United States
More flights between these airports :: More routes between these airports
Route: +SXC V208 OCN V23 MZB
File this flight plan on PilotEdge
Remarks: I-8 (Practice Run - No Server Crash Edition)
Altitude:
(Current/Filed)
7,000ft
Speed:
(Current/Filed)
115kts
Departed: 15-Nov-17 08:38 PM
Arrived: 15-Nov-17 09:47 PM
Distance/Time
Traveled:
59nm/1:08
Distance/Time
To Go:
Arrived

Flight Plot

Page will automatically refresh every two minutes.


Map Options




Map Legend


Flown Route
Filed Route
Departure Airport
Arrival Airport
Navaid (VOR, NDB)
Fix

Horizontal Profiles

Position Reports

Time Latitude Longitude Heading Altitude Ground
Speed
15-Nov-17 20:31 33.403292 -118.415954 44 1545ft 0kts
15-Nov-17 20:32 33.403292 -118.415954 44 1545ft 0kts
15-Nov-17 20:33 33.403292 -118.415954 44 1545ft 0kts
15-Nov-17 20:34 33.403292 -118.415954 44 1545ft 0kts
15-Nov-17 20:35 33.403292 -118.415954 44 1545ft 0kts
15-Nov-17 20:36 33.403292 -118.415954 44 1545ft 0kts
15-Nov-17 20:37 33.403292 -118.415954 44 1545ft 0kts
15-Nov-17 20:38 33.403292 -118.415954 44 1545ft 0kts
15-Nov-17 20:39 33.403304 -118.415941 45 1545ft 0kts
15-Nov-17 20:40 33.405488 -118.414259 54 1532ft 19kts
15-Nov-17 20:41 33.407214 -118.411378 19 1507ft 0kts
15-Nov-17 20:42 33.407017 -118.412363 236 1514ft 34kts
15-Nov-17 20:43 33.395210 -118.431005 221 2370ft 78kts
15-Nov-17 20:44 33.370261 -118.430869 182 2997ft 112kts
15-Nov-17 20:45 33.342091 -118.424558 167 2981ft 97kts
15-Nov-17 20:46 33.318552 -118.410111 148 2983ft 97kts
15-Nov-17 20:47 33.297146 -118.390600 147 2983ft 96kts
15-Nov-17 20:48 33.274967 -118.370270 134 2992ft 107kts
15-Nov-17 20:49 33.274053 -118.334500 83 3129ft 111kts
15-Nov-17 20:50 33.277684 -118.298119 80 3722ft 117kts
15-Nov-17 20:51 33.282617 -118.261106 79 4502ft 110kts
15-Nov-17 20:52 33.287431 -118.226657 80 5283ft 104kts
15-Nov-17 20:53 33.292370 -118.192866 81 6074ft 102kts
15-Nov-17 20:54 33.296807 -118.159917 82 6858ft 99kts
15-Nov-17 20:55 33.301893 -118.123883 83 7007ft 114kts
15-Nov-17 20:56 33.306690 -118.085978 83 7007ft 116kts
15-Nov-17 20:57 33.311459 -118.047855 83 7007ft 116kts
15-Nov-17 20:58 33.315486 -118.009699 93 7007ft 115kts
15-Nov-17 20:59 33.313121 -117.971608 100 7007ft 114kts
15-Nov-17 21:00 33.308998 -117.933614 103 6952ft 118kts
15-Nov-17 21:01 33.304188 -117.896071 103 6943ft 115kts
15-Nov-17 21:02 33.299147 -117.858377 103 6943ft 114kts
15-Nov-17 21:03 33.293984 -117.820963 103 6953ft 115kts
15-Nov-17 21:04 33.288857 -117.783092 101 6953ft 116kts
15-Nov-17 21:05 33.283931 -117.746612 108 6950ft 107kts
15-Nov-17 21:06 33.279469 -117.717376 108 6952ft 107kts
15-Nov-17 21:07 33.273138 -117.676000 105 6953ft 109kts
15-Nov-17 21:08 33.267680 -117.640066 105 6953ft 110kts
15-Nov-17 21:09 33.263089 -117.609964 105 6953ft 110kts
15-Nov-17 21:10 33.257721 -117.573937 103 6966ft 109kts
15-Nov-17 21:11 33.252392 -117.531534 97 7019ft 114kts
15-Nov-17 21:12 33.248603 -117.500040 99 7018ft 115kts
15-Nov-17 21:13 33.243126 -117.455635 100 7018ft 116kts
15-Nov-17 21:14 33.235335 -117.419301 152 6997ft 108kts
15-Nov-17 21:15 33.212836 -117.409098 168 7000ft 103kts
15-Nov-17 21:16 33.185906 -117.397433 167 7004ft 103kts
15-Nov-17 21:17 33.159139 -117.385184 168 7016ft 102kts
15-Nov-17 21:18 33.130935 -117.373175 168 7027ft 113kts
15-Nov-17 21:19 33.100692 -117.360463 168 7026ft 115kts
15-Nov-17 21:20 33.070645 -117.347873 168 7023ft 115kts
15-Nov-17 21:21 33.040542 -117.335275 168 7022ft 115kts
15-Nov-17 21:22 33.008870 -117.322066 167 6579ft 126kts
15-Nov-17 21:23 32.977377 -117.308893 167 5608ft 119kts
15-Nov-17 21:24 32.947195 -117.296261 166 5005ft 110kts
15-Nov-17 21:25 32.917340 -117.283801 166 5005ft 116kts
15-Nov-17 21:26 32.886830 -117.271068 166 5004ft 117kts
15-Nov-17 21:27 32.856167 -117.258286 166 5004ft 117kts
15-Nov-17 21:28 32.825603 -117.245076 151 5008ft 121kts
15-Nov-17 21:29 32.815909 -117.206387 100 5012ft 123kts
15-Nov-17 21:30 32.809546 -117.167081 100 5013ft 120kts
15-Nov-17 21:31 32.802705 -117.128278 101 5008ft 119kts
15-Nov-17 21:32 32.795799 -117.089561 101 5005ft 119kts
15-Nov-17 21:33 32.788796 -117.050630 101 5003ft 120kts
15-Nov-17 21:34 32.782067 -117.013476 101 4990ft 112kts
15-Nov-17 21:35 32.775450 -116.977258 101 4989ft 112kts
15-Nov-17 21:36 32.768773 -116.940996 101 4988ft 112kts
15-Nov-17 21:37 32.762007 -116.904553 102 4995ft 117kts
15-Nov-17 21:38 32.754872 -116.865877 115 4997ft 121kts
15-Nov-17 21:39 32.725703 -116.862575 198 4078ft 115kts
15-Nov-17 21:40 32.695980 -116.869984 197 4014ft 110kts
15-Nov-17 21:41 32.677369 -116.891570 254 4011ft 102kts
15-Nov-17 21:42 32.666767 -116.923745 262 3874ft 107kts
15-Nov-17 21:43 32.672667 -116.957887 292 3465ft 109kts
15-Nov-17 21:44 32.685927 -116.990401 296 3062ft 110kts
15-Nov-17 21:45 32.696480 -117.024104 285 2754ft 98kts
15-Nov-17 21:46 32.698079 -117.054007 275 2532ft 104kts
15-Nov-17 21:47 32.706313 -117.087430 288 2060ft 95kts
15-Nov-17 21:48 32.715034 -117.116458 289 1612ft 96kts
15-Nov-17 21:49 32.722282 -117.143582 289 915ft 78kts
15-Nov-17 21:50 32.727709 -117.165643 285 412ft 66kts
15-Nov-17 21:51 32.732712 -117.186275 286 16ft 48kts
15-Nov-17 21:52 32.734309 -117.188203 313 17ft 12kts
15-Nov-17 21:53 32.735042 -117.188708 194 17ft 0kts
15-Nov-17 21:54 32.735042 -117.188708 194 17ft 0kts
15-Nov-17 21:55 32.735042 -117.188708 194 17ft 0kts
15-Nov-17 21:56 32.735042 -117.188708 194 17ft 0kts
15-Nov-17 21:57 32.735042 -117.188708 194 17ft 0kts
15-Nov-17 21:58 32.735042 -117.188708 194 17ft 0kts
15-Nov-17 21:59 32.735042 -117.188708 194 17ft 0kts
15-Nov-17 22:00 32.735042 -117.188708 194 17ft 0kts
15-Nov-17 22:01 32.735042 -117.188708 194 17ft 0kts
15-Nov-17 22:02 32.735042 -117.188708 194 17ft 0kts
15-Nov-17 22:03 33.403292 -118.415954 44 1545ft 0kts
15-Nov-17 22:04 33.126259 -117.283375 80 309ft 0kts
15-Nov-17 22:05 33.126259 -117.283375 80 309ft 0kts
15-Nov-17 22:06 33.126259 -117.283375 80 309ft 0kts

Navigation Log

Ident Type
1. KAVX Airport
2. SXC Navaid
3. AVOLS Fix
4. PACIF Fix
5. HUBRD Fix
6. OCN Navaid
7. HURSI Fix
8. CARIF Fix
9. MZB Navaid
10. KSAN Airport